sensor_id;sensor_type;location;lat;lon;timestamp;pressure;altitude;pressure_sealevel;temperature;humidity
74913;BME280;63878;55.624;37.304;2023-04-04T00:03:44;98833.06;;;4.87;70.04
74913;BME280;63878;55.624;37.304;2023-04-04T00:13:44;98834.13;;;4.71;71.26
74913;BME280;63878;55.624;37.304;2023-04-04T00:23:45;98836.44;;;4.50;71.80
74913;BME280;63878;55.624;37.304;2023-04-04T00:33:45;98828.19;;;4.44;71.94
74913;BME280;63878;55.624;37.304;2023-04-04T00:43:46;98815.00;;;4.45;71.78
74913;BME280;63878;55.624;37.304;2023-04-04T00:53:47;98810.81;;;4.43;71.48
74913;BME280;63878;55.624;37.304;2023-04-04T01:03:48;98813.53;;;4.54;71.13
74913;BME280;63878;55.624;37.304;2023-04-04T01:13:49;98808.72;;;4.48;71.21
74913;BME280;63878;55.624;37.304;2023-04-04T01:23:58;98820.09;;;4.21;72.62
74913;BME280;63878;55.624;37.304;2023-04-04T01:34:33;98805.47;;;4.19;72.45
74913;BME280;63878;55.624;37.304;2023-04-04T01:44:37;98816.63;;;4.08;72.79
74913;BME280;63878;55.624;37.304;2023-04-04T01:54:38;98815.63;;;4.11;72.04
74913;BME280;63878;55.624;37.304;2023-04-04T02:04:38;98816.63;;;3.95;72.77
74913;BME280;63878;55.624;37.304;2023-04-04T02:14:39;98805.75;;;3.89;72.45
74913;BME280;63878;55.624;37.304;2023-04-04T02:24:39;98812.94;;;3.85;72.90
74913;BME280;63878;55.624;37.304;2023-04-04T02:34:40;98812.53;;;3.79;72.69
74913;BME280;63878;55.624;37.304;2023-04-04T02:44:40;98819.69;;;3.75;73.65
74913;BME280;63878;55.624;37.304;2023-04-04T02:54:41;98817.00;;;3.77;73.31
74913;BME280;63878;55.624;37.304;2023-04-04T03:04:41;98814.09;;;3.81;72.90
74913;BME280;63878;55.624;37.304;2023-04-04T03:14:42;98826.25;;;4.08;71.29
74913;BME280;63878;55.624;37.304;2023-04-04T03:24:42;98826.25;;;4.08;71.06
74913;BME280;63878;55.624;37.304;2023-04-04T03:34:43;98821.31;;;3.90;71.93
74913;BME280;63878;55.624;37.304;2023-04-04T03:44:43;98823.84;;;3.65;72.59
74913;BME280;63878;55.624;37.304;2023-04-04T03:54:44;98821.81;;;3.56;73.28
74913;BME280;63878;55.624;37.304;2023-04-04T04:04:44;98825.28;;;3.83;72.09
74913;BME280;63878;55.624;37.304;2023-04-04T04:14:45;98827.31;;;3.65;72.61
74913;BME280;63878;55.624;37.304;2023-04-04T04:24:45;98837.47;;;3.43;73.98
74913;BME280;63878;55.624;37.304;2023-04-04T04:34:45;98834.63;;;3.46;73.79
74913;BME280;63878;55.624;37.304;2023-04-04T04:44:46;98831.41;;;3.69;72.73
74913;BME280;63878;55.624;37.304;2023-04-04T04:54:46;98835.28;;;3.77;71.68
74913;BME280;63878;55.624;37.304;2023-04-04T05:04:47;98826.13;;;3.84;71.71
74913;BME280;63878;55.624;37.304;2023-04-04T05:14:48;98820.50;;;3.90;72.10
74913;BME280;63878;55.624;37.304;2023-04-04T05:24:48;98816.97;;;4.29;71.00
74913;BME280;63878;55.624;37.304;2023-04-04T05:34:49;98823.38;;;4.38;70.15
74913;BME280;63878;55.624;37.304;2023-04-04T05:44:49;98816.09;;;5.05;67.69
74913;BME280;63878;55.624;37.304;2023-04-04T05:54:50;98805.47;;;5.19;67.97
74913;BME280;63878;55.624;37.304;2023-04-04T06:04:51;98814.34;;;5.29;65.88
74913;BME280;63878;55.624;37.304;2023-04-04T06:14:51;98810.50;;;5.09;66.31
74913;BME280;63878;55.624;37.304;2023-04-04T06:24:52;98817.03;;;5.41;65.25
74913;BME280;63878;55.624;37.304;2023-04-04T06:34:52;98822.31;;;5.76;63.44
74913;BME280;63878;55.624;37.304;2023-04-04T06:44:53;98813.94;;;5.95;63.18
74913;BME280;63878;55.624;37.304;2023-04-04T06:54:54;98812.91;;;5.97;62.34
74913;BME280;63878;55.624;37.304;2023-04-04T07:04:55;98823.38;;;6.43;62.44
74913;BME280;63878;55.624;37.304;2023-04-04T07:14:55;98831.63;;;6.72;60.30
74913;BME280;63878;55.624;37.304;2023-04-04T07:24:56;98837.44;;;6.76;60.48
74913;BME280;63878;55.624;37.304;2023-04-04T07:34:56;98830.69;;;6.96;58.77
74913;BME280;63878;55.624;37.304;2023-04-04T07:44:57;98834.38;;;7.05;57.46
74913;BME280;63878;55.624;37.304;2023-04-04T07:54:57;98837.59;;;6.86;57.04
74913;BME280;63878;55.624;37.304;2023-04-04T08:04:58;98829.84;;;7.18;55.49
74913;BME280;63878;55.624;37.304;2023-04-04T08:14:58;98840.97;;;7.53;54.06
74913;BME280;63878;55.624;37.304;2023-04-04T08:24:59;98833.84;;;7.76;52.43
74913;BME280;63878;55.624;37.304;2023-04-04T08:34:59;98837.38;;;7.98;51.15
74913;BME280;63878;55.624;37.304;2023-04-04T08:45:02;98841.25;;;8.03;49.16
74913;BME280;63878;55.624;37.304;2023-04-04T08:55:04;98854.63;;;8.12;50.36
74913;BME280;63878;55.624;37.304;2023-04-04T09:05:05;98864.81;;;7.73;50.47
74913;BME280;63878;55.624;37.304;2023-04-04T09:15:07;98865.66;;;7.62;50.65
74913;BME280;63878;55.624;37.304;2023-04-04T09:25:08;98871.09;;;7.81;50.57
74913;BME280;63878;55.624;37.304;2023-04-04T09:35:10;98843.22;;;7.90;51.36
74913;BME280;63878;55.624;37.304;2023-04-04T09:45:11;98868.50;;;8.55;49.59
74913;BME280;63878;55.624;37.304;2023-04-04T09:55:13;98863.94;;;8.57;51.90
74913;BME280;63878;55.624;37.304;2023-04-04T10:05:14;98870.22;;;9.58;48.96
74913;BME280;63878;55.624;37.304;2023-04-04T10:15:15;98867.88;;;10.03;49.96
74913;BME280;63878;55.624;37.304;2023-04-04T10:25:16;98873.84;;;10.15;55.02
74913;BME280;63878;55.624;37.304;2023-04-04T10:35:17;98879.78;;;9.28;46.28
74913;BME280;63878;55.624;37.304;2023-04-04T10:45:20;98863.19;;;8.46;48.04
74913;BME280;63878;55.624;37.304;2023-04-04T10:55:21;98884.00;;;9.00;49.90
74913;BME280;63878;55.624;37.304;2023-04-04T11:05:38;98877.47;;;9.85;48.09
74913;BME280;63878;55.624;37.304;2023-04-04T11:15:54;98863.16;;;9.28;45.36
74913;BME280;63878;55.624;37.304;2023-04-04T11:25:55;98872.66;;;9.50;53.92
74913;BME280;63878;55.624;37.304;2023-04-04T11:36:03;98876.78;;;9.92;49.34
74913;BME280;63878;55.624;37.304;2023-04-04T11:46:05;98883.44;;;9.87;45.46
74913;BME280;63878;55.624;37.304;2023-04-04T11:56:05;98882.19;;;9.41;45.38
74913;BME280;63878;55.624;37.304;2023-04-04T12:06:06;98888.09;;;9.24;43.89
74913;BME280;63878;55.624;37.304;2023-04-04T12:16:07;98873.69;;;9.18;44.64
74913;BME280;63878;55.624;37.304;2023-04-04T12:26:08;98884.22;;;9.58;43.30
74913;BME280;63878;55.624;37.304;2023-04-04T12:36:10;98904.38;;;9.79;47.10
74913;BME280;63878;55.624;37.304;2023-04-04T12:46:10;98909.19;;;9.64;43.33
74913;BME280;63878;55.624;37.304;2023-04-04T12:56:11;98900.59;;;9.62;43.00
74913;BME280;63878;55.624;37.304;2023-04-04T13:06:14;98901.84;;;9.27;43.68
74913;BME280;63878;55.624;37.304;2023-04-04T13:16:32;98913.31;;;9.47;43.46
74913;BME280;63878;55.624;37.304;2023-04-04T13:26:33;98929.91;;;9.38;43.18
74913;BME280;63878;55.624;37.304;2023-04-04T13:36:33;98941.53;;;9.05;44.05
74913;BME280;63878;55.624;37.304;2023-04-04T13:46:34;98946.78;;;8.63;47.98
74913;BME280;63878;55.624;37.304;2023-04-04T13:56:35;98942.81;;;8.48;50.24
74913;BME280;63878;55.624;37.304;2023-04-04T14:06:35;98938.84;;;8.74;50.17
74913;BME280;63878;55.624;37.304;2023-04-04T14:16:36;98934.13;;;8.36;51.39
74913;BME280;63878;55.624;37.304;2023-04-04T14:26:37;98946.72;;;8.32;51.23
74913;BME280;63878;55.624;37.304;2023-04-04T14:36:37;98963.84;;;8.48;51.61
74913;BME280;63878;55.624;37.304;2023-04-04T14:46:38;98978.63;;;8.17;52.24
74913;BME280;63878;55.624;37.304;2023-04-04T14:56:38;98978.81;;;8.04;53.00
74913;BME280;63878;55.624;37.304;2023-04-04T15:06:39;98977.75;;;7.95;53.41
74913;BME280;63878;55.624;37.304;2023-04-04T15:16:39;98979.06;;;7.90;54.03
74913;BME280;63878;55.624;37.304;2023-04-04T15:26:40;98981.59;;;7.91;54.65
74913;BME280;63878;55.624;37.304;2023-04-04T15:36:40;98993.91;;;7.68;54.40
74913;BME280;63878;55.624;37.304;2023-04-04T15:46:41;99003.84;;;7.65;54.76
74913;BME280;63878;55.624;37.304;2023-04-04T15:56:41;99011.34;;;7.58;54.28
74913;BME280;63878;55.624;37.304;2023-04-04T16:06:42;99024.72;;;7.44;53.74
74913;BME280;63878;55.624;37.304;2023-04-04T16:16:44;99017.97;;;8.07;52.54
74913;BME280;63878;55.624;37.304;2023-04-04T16:26:44;99037.81;;;8.22;53.13
74913;BME280;63878;55.624;37.304;2023-04-04T16:36:45;99047.13;;;8.15;53.65
74913;BME280;63878;55.624;37.304;2023-04-04T16:46:45;99050.97;;;8.00;55.19
74913;BME280;63878;55.624;37.304;2023-04-04T16:56:46;99059.56;;;8.02;57.38
74913;BME280;63878;55.624;37.304;2023-04-04T17:06:47;99048.94;;;8.03;55.51
74913;BME280;63878;55.624;37.304;2023-04-04T17:16:47;99066.16;;;7.96;56.16
74913;BME280;63878;55.624;37.304;2023-04-04T17:26:48;99062.16;;;7.23;58.73
74913;BME280;63878;55.624;37.304;2023-04-04T17:36:49;99070.03;;;7.23;59.11
74913;BME280;63878;55.624;37.304;2023-04-04T17:46:50;99067.59;;;7.09;59.32
74913;BME280;63878;55.624;37.304;2023-04-04T17:56:50;99062.09;;;7.01;60.25
74913;BME280;63878;55.624;37.304;2023-04-04T18:06:51;99072.78;;;7.22;58.74
74913;BME280;63878;55.624;37.304;2023-04-04T18:16:52;99064.41;;;7.06;60.15
74913;BME280;63878;55.624;37.304;2023-04-04T18:26:52;99067.28;;;7.14;59.96
74913;BME280;63878;55.624;37.304;2023-04-04T18:36:54;99064.28;;;7.07;59.92
74913;BME280;63878;55.624;37.304;2023-04-04T18:46:54;99068.22;;;6.78;60.90
74913;BME280;63878;55.624;37.304;2023-04-04T18:56:56;99074.22;;;6.67;62.01
74913;BME280;63878;55.624;37.304;2023-04-04T19:07:00;99074.69;;;6.37;63.57
74913;BME280;63878;55.624;37.304;2023-04-04T19:17:02;99084.88;;;6.16;63.37
74913;BME280;63878;55.624;37.304;2023-04-04T19:27:03;99084.28;;;6.12;64.03
74913;BME280;63878;55.624;37.304;2023-04-04T19:37:03;99100.56;;;6.05;64.07
74913;BME280;63878;55.624;37.304;2023-04-04T19:47:06;99108.91;;;6.10;64.16
74913;BME280;63878;55.624;37.304;2023-04-04T19:57:12;99103.72;;;5.97;64.26
74913;BME280;63878;55.624;37.304;2023-04-04T20:07:14;99114.53;;;5.80;64.87
74913;BME280;63878;55.624;37.304;2023-04-04T20:17:18;99112.53;;;5.83;64.55
74913;BME280;63878;55.624;37.304;2023-04-04T20:27:22;99094.91;;;5.98;64.25
74913;BME280;63878;55.624;37.304;2023-04-04T20:37:24;99107.59;;;6.04;64.00
74913;BME280;63878;55.624;37.304;2023-04-04T20:47:48;99108.84;;;5.99;64.12
74913;BME280;63878;55.624;37.304;2023-04-04T20:57:50;99114.69;;;5.89;64.55
74913;BME280;63878;55.624;37.304;2023-04-04T21:07:51;99111.38;;;5.87;64.10
74913;BME280;63878;55.624;37.304;2023-04-04T21:17:52;99121.22;;;5.46;65.91
74913;BME280;63878;55.624;37.304;2023-04-04T21:27:54;99120.00;;;5.12;67.01
74913;BME280;63878;55.624;37.304;2023-04-04T21:37:54;99110.88;;;5.57;64.97
74913;BME280;63878;55.624;37.304;2023-04-04T21:47:55;99119.66;;;5.69;64.41
74913;BME280;63878;55.624;37.304;2023-04-04T21:57:55;99135.34;;;5.30;65.33
74913;BME280;63878;55.624;37.304;2023-04-04T22:07:56;99129.19;;;5.44;64.83
74913;BME280;63878;55.624;37.304;2023-04-04T22:17:57;99145.91;;;5.42;64.72
74913;BME280;63878;55.624;37.304;2023-04-04T22:27:58;99148.66;;;5.13;65.70
74913;BME280;63878;55.624;37.304;2023-04-04T22:37:58;99155.69;;;5.13;65.97
74913;BME280;63878;55.624;37.304;2023-04-04T22:47:59;99156.28;;;5.16;64.56
74913;BME280;63878;55.624;37.304;2023-04-04T22:57:59;99170.78;;;4.95;66.20
74913;BME280;63878;55.624;37.304;2023-04-04T23:08:01;99173.28;;;4.83;66.30
74913;BME280;63878;55.624;37.304;2023-04-04T23:18:01;99177.28;;;4.75;66.62
74913;BME280;63878;55.624;37.304;2023-04-04T23:28:02;99168.47;;;4.63;66.56
74913;BME280;63878;55.624;37.304;2023-04-04T23:38:02;99165.00;;;4.63;66.60
74913;BME280;63878;55.624;37.304;2023-04-04T23:48:03;99175.53;;;4.20;68.08
74913;BME280;63878;55.624;37.304;2023-04-04T23:58:04;99174.88;;;4.31;68.12
